Time,TemperatureF,DewpointF,PressureIn,WindDirection,WindDirectionDegrees,WindSpeedMPH,WindSpeedGustMPH,Humidity,HourlyPrecipIn,Conditions,Clouds,dailyrainin,SoftwareType,DateUTC
2013-10-23 01:22:00,38.0,29.0,-100.00,North,-999,-999.0,-999.0,68,0.00,,,-99.99,,2013-10-23 06:22:00,
2013-10-23 01:42:00,38.0,29.0,-100.00,North,-999,-999.0,-999.0,68,0.00,,,-99.99,,2013-10-23 06:42:00,
2013-10-23 02:22:00,38.0,28.0,-100.00,North,-999,-999.0,-999.0,66,0.00,,,-99.99,,2013-10-23 07:22:00,
2013-10-23 02:42:00,38.0,28.0,-100.00,North,-999,-999.0,-999.0,67,0.00,,,-99.99,,2013-10-23 07:42:00,
2013-10-23 04:22:00,36.0,30.0,-100.00,North,-999,-999.0,-999.0,77,0.00,,,-99.99,,2013-10-23 09:22:00,
2013-10-23 06:22:00,34.0,31.0,-100.00,North,-999,-999.0,-999.0,86,0.00,,,-99.99,,2013-10-23 11:22:00,
2013-10-23 07:12:00,33.0,-99.9,-100.00,North,-999,-999.0,-999.0,-999,0.00,,,-99.99,,2013-10-23 12:12:00,
2013-10-23 07:22:00,33.0,-99.9,-100.00,North,-999,-999.0,-999.0,-999,0.00,,,-99.99,,2013-10-23 12:22:00,
2013-10-23 07:42:00,34.0,-99.9,-100.00,North,-999,-999.0,-999.0,-999,0.00,,,-99.99,,2013-10-23 12:42:00,
2013-10-23 09:22:00,37.0,-99.9,-100.00,North,-999,-999.0,-999.0,-999,0.00,,,-99.99,,2013-10-23 14:22:00,
2013-10-23 09:42:00,37.0,-99.9,-100.00,North,-999,-999.0,-999.0,-999,0.00,,,-99.99,,2013-10-23 14:42:00,
2013-10-23 10:22:00,41.0,32.0,-100.00,North,-999,-999.0,-999.0,70,0.00,,,-99.99,,2013-10-23 15:22:00,
2013-10-23 10:43:00,41.0,29.0,-100.00,North,-999,-999.0,-999.0,63,0.00,,,-99.99,,2013-10-23 15:43:00,
2013-10-23 11:23:00,41.0,28.0,-100.00,North,-999,-999.0,-999.0,58,0.00,,,-99.99,,2013-10-23 16:23:00,
2013-10-23 11:42:00,42.0,29.0,-100.00,North,-999,-999.0,-999.0,58,0.00,,,-99.99,,2013-10-23 16:42:00,
2013-10-23 12:22:00,43.0,28.0,-100.00,North,-999,-999.0,-999.0,54,0.00,,,-99.99,,2013-10-23 17:22:00,
2013-10-23 12:44:00,43.0,28.0,-100.00,North,-999,-999.0,-999.0,56,0.00,,,-99.99,,2013-10-23 17:44:00,
2013-10-23 13:22:00,42.0,30.0,-100.00,North,-999,-999.0,-999.0,63,0.00,,,-99.99,,2013-10-23 18:22:00,
2013-10-23 13:41:00,41.0,34.0,-100.00,North,-999,-999.0,-999.0,76,0.00,,,-99.99,,2013-10-23 18:41:00,
2013-10-23 14:22:00,40.0,-99.9,-100.00,North,-999,-999.0,-999.0,-999,0.01,,,-99.99,,2013-10-23 19:22:00,
2013-10-23 14:42:00,39.0,-99.9,-100.00,North,-999,-999.0,-999.0,-999,0.01,,,-99.99,,2013-10-23 19:42:00,
2013-10-23 15:23:00,39.0,-99.9,-100.00,North,-999,-999.0,-999.0,-999,0.00,,,-99.99,,2013-10-23 20:23:00,
2013-10-23 15:43:00,39.0,-99.9,-100.00,North,-999,-999.0,-999.0,-999,0.00,,,-99.99,,2013-10-23 20:43:00,
2013-10-23 16:22:00,39.0,-99.9,-100.00,North,-999,-999.0,-999.0,-999,0.00,,,-99.99,,2013-10-23 21:22:00,
2013-10-23 16:43:00,39.0,-99.9,-100.00,North,-999,-999.0,-999.0,-999,0.00,,,-99.99,,2013-10-23 21:43:00,
2013-10-23 17:43:00,39.0,-99.9,-100.00,North,-999,-999.0,-999.0,-999,0.00,,,-99.99,,2013-10-23 22:43:00,
2013-10-23 18:23:00,39.0,-99.9,-100.00,North,-999,-999.0,-999.0,-999,0.00,,,-99.99,,2013-10-23 23:23:00,
2013-10-23 18:43:00,39.0,-99.9,-100.00,North,-999,-999.0,-999.0,-999,0.00,,,-99.99,,2013-10-23 23:43:00,
2013-10-23 19:22:00,39.0,-99.9,-100.00,North,-999,-999.0,-999.0,-999,0.00,,,-99.99,,2013-10-24 00:22:00,
2013-10-23 19:43:00,39.0,-99.9,-100.00,North,-999,-999.0,-999.0,-999,0.00,,,-99.99,,2013-10-24 00:43:00,
2013-10-23 22:44:00,39.0,-99.9,-100.00,North,-999,-999.0,-999.0,-999,0.00,,,-99.99,,2013-10-24 03:44:00,
2013-10-23 23:24:00,39.0,33.0,-100.00,North,-999,-999.0,-999.0,79,0.00,,,-99.99,,2013-10-24 04:24:00,
2013-10-23 23:44:00,39.0,32.0,-100.00,North,-999,-999.0,-999.0,76,0.00,,,-99.99,,2013-10-24 04:44:00,